Time;durP1;ratioP1;P1;durP2;ratioP2;P2;SDS_P1;SDS_P2;PMS_P1;PMS_P2;Temp;Humidity;BMP_temperature;BMP_pressure;BME280_temperature;BME280_humidity;BME280_pressure;Samples;Min_cycle;Max_cycle;Signal;HPM_P1;HPM_P2
2022/05/22 00:00:46;;;;;;;1.57;1.30;;;;;;;14.06;59.59;99096.78;4953721;28;43023;-76
2022/05/22 00:03:13;;;;;;;1.20;1.10;;;;;;;13.99;59.57;99091.03;4953490;28;42765;-76
2022/05/22 00:05:41;;;;;;;1.10;1.07;;;;;;;13.93;59.68;99089.69;4953893;28;39536;-76
2022/05/22 00:08:09;;;;;;;1.23;1.00;;;;;;;13.55;59.87;99044.53;4937489;28;40684;-76
2022/05/22 00:10:37;;;;;;;1.43;1.27;;;;;;;13.82;59.87;99094.94;4953397;28;41488;-76
2022/05/22 00:13:06;;;;;;;1.70;0.80;;;;;;;13.79;60.21;99096.97;4954609;28;42242;-76
2022/05/22 00:15:37;;;;;;;1.17;1.00;;;;;;;13.74;60.53;99091.97;4952718;28;39949;-76
2022/05/22 00:18:05;;;;;;;2.07;1.20;;;;;;;13.71;60.34;99097.53;4937435;28;41680;-76
2022/05/22 00:20:33;;;;;;;1.13;1.00;;;;;;;13.59;60.73;99087.75;4953148;28;42828;-76
2022/05/22 00:23:00;;;;;;;0.90;0.90;;;;;;;13.60;60.79;99089.44;4937251;28;41684;-76
2022/05/22 00:25:28;;;;;;;1.77;1.10;;;;;;;13.59;60.57;99101.06;4952740;28;40913;-76
2022/05/22 00:27:56;;;;;;;1.17;1.10;;;;;;;13.51;60.95;99101.59;4951485;28;42721;-76
2022/05/22 00:30:25;;;;;;;0.70;0.70;;;;;;;13.46;60.86;99097.56;4936712;28;41870;-76
2022/05/22 00:32:52;;;;;;;1.23;1.13;;;;;;;13.44;60.94;99094.16;4937137;28;41213;-76
2022/05/22 00:35:20;;;;;;;1.80;1.27;;;;;;;13.40;60.75;99095.31;4953339;28;40112;-76
2022/05/22 00:37:48;;;;;;;1.67;0.80;;;;;;;13.28;60.72;99076.59;4953395;28;42532;-76
2022/05/22 00:40:16;;;;;;;1.00;1.00;;;;;;;13.35;60.96;99094.81;4937181;28;43013;-76
2022/05/22 00:42:46;;;;;;;0.80;0.77;;;;;;;13.27;60.71;99088.19;4953180;28;43309;-76
2022/05/22 00:45:14;;;;;;;1.00;0.90;;;;;;;13.27;60.83;99084.69;4936602;28;38789;-76
2022/05/22 00:47:43;;;;;;;1.00;0.80;;;;;;;13.13;60.90;99068.81;4936869;28;41226;-76
2022/05/22 00:50:14;;;;;;;1.10;0.83;;;;;;;13.24;61.04;99092.88;4936544;28;42664;-76
2022/05/22 00:52:46;;;;;;;1.17;0.97;;;;;;;13.21;61.15;99093.97;4952814;28;42340;-76
2022/05/22 00:55:17;;;;;;;1.33;1.00;;;;;;;13.12;61.66;99073.28;4936985;28;39757;-76
2022/05/22 00:57:50;;;;;;;1.73;1.30;;;;;;;13.13;62.15;99085.59;4937271;28;42185;-76
2022/05/22 01:00:20;;;;;;;1.37;1.27;;;;;;;13.09;62.07;99084.13;4950678;28;42521;-76
2022/05/22 01:05:43;;;;;;;2.00;1.10;;;;;;;13.01;62.30;99086.44;4952316;28;38984;-76
2022/05/22 01:08:11;;;;;;;1.30;1.20;;;;;;;12.97;62.51;99085.00;4936922;28;42010;-76
2022/05/22 01:10:43;;;;;;;1.00;0.90;;;;;;;12.95;62.78;99081.56;4936689;28;41856;-76
2022/05/22 01:13:13;;;;;;;1.27;1.10;;;;;;;12.89;62.79;99072.19;4936816;28;41292;-76
2022/05/22 01:15:41;;;;;;;0.87;0.87;;;;;;;12.91;62.69;99074.75;4936449;28;41246;-76
2022/05/22 01:18:11;;;;;;;2.00;0.90;;;;;;;12.92;62.57;99079.97;4952274;28;42513;-75
2022/05/22 01:20:45;;;;;;;1.67;1.23;;;;;;;12.91;62.75;99074.75;4936175;28;43615;-75
2022/05/22 01:23:14;;;;;;;1.83;1.03;;;;;;;12.89;63.15;99079.31;4949515;28;42148;-76
2022/05/22 01:25:42;;;;;;;1.20;0.90;;;;;;;12.87;63.20;99078.56;4952015;28;39941;-76
2022/05/22 01:28:11;;;;;;;1.37;1.00;;;;;;;12.78;63.79;99064.13;4952334;28;42047;-76
2022/05/22 01:30:39;;;;;;;1.20;1.00;;;;;;;12.80;63.71;99066.66;4936015;28;42113;-77
2022/05/22 01:33:09;;;;;;;1.27;1.00;;;;;;;12.76;63.59;99071.34;4936409;28;42380;-75
2022/05/22 01:35:39;;;;;;;1.00;0.90;;;;;;;12.74;64.38;99072.38;4936182;28;39027;-76
2022/05/22 01:38:09;;;;;;;0.90;0.90;;;;;;;12.73;64.08;99070.72;4952203;28;40834;-76
2022/05/22 01:40:44;;;;;;;1.43;0.90;;;;;;;12.76;64.08;99071.34;4936189;28;41883;-76
2022/05/22 01:43:11;;;;;;;2.60;1.23;;;;;;;12.82;63.98;99075.38;4938086;28;42439;-76
2022/05/22 01:45:42;;;;;;;1.23;0.90;;;;;;;12.87;63.58;99082.09;4940889;28;40503;-76
2022/05/22 01:48:11;;;;;;;1.00;0.80;;;;;;;12.88;64.02;99074.97;4941675;28;40953;-76
2022/05/22 01:50:46;;;;;;;1.10;1.00;;;;;;;12.92;64.06;99071.16;4940888;28;41736;-76
2022/05/22 01:53:14;;;;;;;1.27;1.00;;;;;;;12.97;63.95;99074.34;4941810;28;43153;-76
2022/05/22 01:55:44;;;;;;;1.23;1.10;;;;;;;12.99;64.22;99075.06;4940858;28;39594;-76
2022/05/22 01:58:12;;;;;;;1.40;1.30;;;;;;;12.94;64.18;99082.53;4941584;28;41926;-76
2022/05/22 02:00:42;;;;;;;1.37;1.03;;;;;;;12.90;63.91;99078.38;4936765;28;41856;-76
2022/05/22 02:03:10;;;;;;;1.10;1.00;;;;;;;12.90;64.30;99073.06;4952113;28;42023;-76
2022/05/22 02:05:39;;;;;;;1.70;1.50;;;;;;;12.82;63.96;99059.44;4952899;28;39995;-76
2022/05/22 02:08:24;;;;;;;1.13;1.03;;;;;;;12.85;63.91;99068.06;4935617;28;41554;-76
2022/05/22 02:10:57;;;;;;;0.87;0.80;;;;;;;12.81;64.04;99074.53;4951875;28;42889;-76
2022/05/22 02:13:29;;;;;;;1.10;1.00;;;;;;;12.80;64.08;99077.31;4949049;28;42225;-76
2022/05/22 02:15:57;;;;;;;1.00;0.87;;;;;;;12.79;63.84;99078.25;4935471;28;38978;-76
2022/05/22 02:18:25;;;;;;;1.43;1.00;;;;;;;12.74;63.91;99064.41;4935591;28;41631;-76
2022/05/22 02:20:53;;;;;;;1.03;0.90;;;;;;;12.75;64.13;99060.81;4935421;28;43068;-76
2022/05/22 02:23:21;;;;;;;0.90;0.90;;;;;;;12.72;63.98;99063.69;4935784;28;41271;-76
2022/05/22 02:25:52;;;;;;;1.73;1.17;;;;;;;12.68;63.92;99067.50;4934836;28;39043;-77
2022/05/22 02:28:23;;;;;;;2.83;1.30;;;;;;;12.62;64.53;99068.75;4935591;28;41704;-76
2022/05/22 02:30:56;;;;;;;1.63;1.23;;;;;;;12.57;64.51;99066.44;4935371;28;41531;-76
2022/05/22 02:33:24;;;;;;;1.13;1.00;;;;;;;12.55;64.75;99060.34;4935306;28;41231;-75
2022/05/22 02:35:57;;;;;;;1.40;1.30;;;;;;;12.51;65.71;99055.34;4935336;28;40037;-76
2022/05/22 02:38:31;;;;;;;2.07;1.43;;;;;;;12.47;65.91;99054.72;4935868;28;40261;-76
2022/05/22 02:40:59;;;;;;;1.63;1.40;;;;;;;12.40;66.74;99021.53;4950973;28;43003;-76
2022/05/22 02:43:29;;;;;;;1.50;1.40;;;;;;;12.50;67.32;99029.72;4935435;28;41509;-76
2022/05/22 02:46:00;;;;;;;2.63;1.57;;;;;;;12.49;66.58;99038.66;4935316;28;39849;-75
2022/05/22 02:48:27;;;;;;;1.40;1.30;;;;;;;12.47;66.39;99033.47;4935570;28;40781;-76
2022/05/22 02:51:00;;;;;;;1.13;1.07;;;;;;;12.45;66.29;99038.03;4935286;28;42785;-76
2022/05/22 02:53:28;;;;;;;1.80;1.20;;;;;;;12.42;66.24;99035.56;4951133;28;43468;-76
2022/05/22 02:56:27;;;;;;;1.40;1.30;;;;;;;12.37;65.97;99037.66;4938257;28;39117;-76
2022/05/22 02:59:19;;;;;;;1.43;1.20;;;;;;;12.37;65.90;99040.31;4946439;28;42750;-76
2022/05/22 03:02:10;;;;;;;1.73;1.23;;;;;;;12.35;66.01;99028.13;4952450;28;42812;-76
2022/05/22 03:04:38;;;;;;;1.10;1.00;;;;;;;12.38;66.01;99028.75;4934876;28;40983;-76
2022/05/22 03:07:10;;;;;;;2.00;1.27;;;;;;;12.38;65.83;99026.09;4935166;28;40412;-76
2022/05/22 03:09:40;;;;;;;1.10;1.00;;;;;;;12.39;66.11;99017.19;4950930;28;40553;-76
2022/05/22 03:12:09;;;;;;;1.17;1.07;;;;;;;12.43;65.86;99016.03;4951822;28;41764;-75
2022/05/22 03:14:45;;;;;;;1.07;0.87;;;;;;;12.45;65.47;99013.28;4951543;28;43106;-76
2022/05/22 03:17:12;;;;;;;1.63;1.33;;;;;;;12.53;65.55;99019.75;4938332;28;38869;-76
2022/05/22 03:19:48;;;;;;;1.30;1.17;;;;;;;12.58;65.75;99022.97;4937926;28;41781;-76
2022/05/22 03:22:16;;;;;;;1.00;0.93;;;;;;;12.56;66.00;99006.28;4938103;28;42018;-76
2022/05/22 03:24:44;;;;;;;1.17;1.07;;;;;;;12.67;66.49;99017.97;4938008;28;42258;-76
2022/05/22 03:27:14;;;;;;;1.27;1.17;;;;;;;12.64;66.57;99013.72;4937914;28;40840;-75
2022/05/22 03:29:45;;;;;;;1.30;1.20;;;;;;;12.53;66.21;99006.47;4937682;28;40563;-76
2022/05/22 03:32:13;;;;;;;3.00;1.00;;;;;;;12.55;66.21;99015.19;4938174;28;42605;-76
2022/05/22 03:34:43;;;;;;;1.20;1.07;;;;;;;12.49;66.38;99015.59;4954038;28;43327;-76
2022/05/22 03:37:11;;;;;;;1.07;0.97;;;;;;;12.46;66.28;99015.81;4954315;28;39897;-77
2022/05/22 03:39:40;;;;;;;1.10;1.00;;;;;;;12.42;66.69;99013.47;4937964;28;41491;-77
2022/05/22 03:42:10;;;;;;;1.30;1.20;;;;;;;12.39;66.33;99008.34;4954064;28;42579;-75
2022/05/22 03:44:39;;;;;;;1.07;1.00;;;;;;;12.34;66.39;99000.72;4937778;28;41337;-76
2022/05/22 03:47:08;;;;;;;0.90;0.90;;;;;;;12.32;66.15;98999.97;4938076;28;39258;-76
2022/05/22 03:49:46;;;;;;;0.83;0.83;;;;;;;12.21;66.34;98982.09;4937348;28;42050;-76
2022/05/22 03:52:14;;;;;;;1.33;1.17;;;;;;;12.30;65.89;98993.06;4953856;28;42784;-76
2022/05/22 03:54:41;;;;;;;1.93;1.10;;;;;;;12.28;66.19;98990.50;4937773;28;42308;-76
2022/05/22 03:57:12;;;;;;;1.17;1.07;;;;;;;12.28;66.16;98989.63;4937852;28;39273;-76
2022/05/22 03:59:40;;;;;;;1.60;1.00;;;;;;;12.19;66.25;98975.19;4953309;28;41774;-76
2022/05/22 04:02:11;;;;;;;1.20;0.97;;;;;;;12.26;66.43;98987.09;4937507;28;41435;-76
2022/05/22 04:04:40;;;;;;;1.40;1.30;;;;;;;12.29;66.47;98992.19;4937396;28;41204;-77
2022/05/22 04:07:27;;;;;;;1.57;1.17;;;;;;;12.31;66.33;98982.31;4953465;28;40079;-76
2022/05/22 04:10:00;;;;;;;2.20;1.20;;;;;;;12.32;66.23;98976.06;4937508;28;40957;-76
2022/05/22 04:12:37;;;;;;;1.30;1.20;;;;;;;12.41;66.41;98980.75;4937940;28;41769;-76
2022/05/22 04:15:08;;;;;;;1.77;1.57;;;;;;;12.48;66.09;98991.81;4952956;28;42328;-76
2022/05/22 04:17:38;;;;;;;2.63;2.30;;;;;;;12.52;66.68;98998.59;4937300;28;40476;-76
2022/05/22 04:20:16;;;;;;;2.70;1.10;;;;;;;12.56;66.94;99000.97;4937427;28;40822;-76
2022/05/22 04:25:29;;;;;;;1.20;1.10;;;;;;;12.70;67.68;98996.50;4935982;28;41586;-77
2022/05/22 04:27:58;;;;;;;1.30;1.20;;;;;;;12.72;68.03;98990.13;4937321;28;39183;-76
2022/05/22 04:30:26;;;;;;;0.93;0.93;;;;;;;12.81;67.53;99001.94;4937232;28;40533;-76
2022/05/22 04:33:02;;;;;;;1.30;1.00;;;;;;;12.87;67.44;99009.47;4950438;28;43669;-76
2022/05/22 04:35:30;;;;;;;1.20;1.10;;;;;;;12.93;68.24;98988.63;4952989;28;42352;-76
2022/05/22 04:38:02;;;;;;;1.57;1.40;;;;;;;12.98;67.76;98990.13;4953382;28;39597;-76
2022/05/22 04:40:31;;;;;;;2.00;1.07;;;;;;;13.11;67.49;99005.09;4937042;28;42017;-76
2022/05/22 04:42:59;;;;;;;1.27;0.90;;;;;;;13.20;67.28;99007.16;4936978;28;43179;-76
2022/05/22 04:45:27;;;;;;;1.60;1.30;;;;;;;13.32;66.94;99009.91;4952944;28;42119;-75
2022/05/22 04:48:04;;;;;;;1.13;1.07;;;;;;;13.27;66.89;98988.94;4937523;28;39049;-76
2022/05/22 04:50:38;;;;;;;1.00;0.90;;;;;;;13.50;66.51;99006.75;4936803;28;41890;-76
2022/05/22 04:53:28;;;;;;;1.80;1.17;;;;;;;13.62;67.20;98991.72;4954098;28;43551;-76
2022/05/22 04:56:05;;;;;;;1.90;1.10;;;;;;;13.70;66.82;98988.50;4952931;28;42208;-76
2022/05/22 04:58:41;;;;;;;1.70;1.50;;;;;;;13.82;66.73;98980.47;4936828;28;38968;-77
2022/05/22 05:01:13;;;;;;;1.30;1.20;;;;;;;13.94;66.27;98987.56;4953047;28;41970;-76
2022/05/22 05:03:51;;;;;;;1.30;1.17;;;;;;;14.06;65.98;98985.78;4950156;28;43683;-76
2022/05/22 05:06:20;;;;;;;1.27;1.13;;;;;;;14.17;66.14;98992.97;4935893;28;42259;-76
2022/05/22 05:08:49;;;;;;;2.20;1.40;;;;;;;14.28;65.73;98987.69;4936766;28;40917;-76
2022/05/22 05:11:23;;;;;;;1.43;1.33;;;;;;;14.40;66.13;98984.13;4936672;28;40458;-76
2022/05/22 05:13:57;;;;;;;3.77;1.60;;;;;;;14.50;66.49;98985.13;4937122;28;42761;-76
2022/05/22 05:16:25;;;;;;;1.93;1.83;;;;;;;14.59;66.44;98989.72;4936318;28;42411;-76
2022/05/22 05:19:02;;;;;;;2.63;1.97;;;;;;;14.69;66.90;98985.41;4936624;28;40096;-76
2022/05/22 05:21:31;;;;;;;2.00;1.90;;;;;;;14.76;66.90;98985.78;4936433;28;41764;-76
2022/05/22 05:24:01;;;;;;;1.87;1.77;;;;;;;14.75;66.35;98976.09;4936654;28;42452;-76
2022/05/22 05:26:32;;;;;;;3.17;1.60;;;;;;;14.94;66.18;98983.50;4935899;28;40736;-76
2022/05/22 05:29:07;;;;;;;2.73;1.93;;;;;;;15.06;65.86;98983.41;4949792;28;39954;-76
2022/05/22 05:31:41;;;;;;;2.50;1.80;;;;;;;15.12;65.93;98976.72;4935786;28;41807;-76
2022/05/22 05:34:10;;;;;;;2.37;1.70;;;;;;;15.31;65.46;98989.44;4936076;28;42856;-76
2022/05/22 05:37:02;;;;;;;3.10;2.03;;;;;;;15.39;65.20;98985.19;4951980;28;41022;-76
2022/05/22 05:39:56;;;;;;;2.10;1.90;;;;;;;15.57;65.03;98990.06;4948627;28;38751;-76
2022/05/22 05:42:34;;;;;;;2.50;2.30;;;;;;;15.62;64.82;98974.50;4949260;28;41753;-76
2022/05/22 05:45:02;;;;;;;2.73;2.23;;;;;;;15.82;64.72;98992.44;4935978;28;42076;-76
2022/05/22 05:47:33;;;;;;;6.47;2.20;;;;;;;15.95;64.47;98994.97;4962677;28;41178;-77
2022/05/22 05:50:13;;;;;;;4.23;2.10;;;;;;;16.05;64.10;98988.72;4951269;28;39668;-77
2022/05/22 05:53:02;;;;;;;2.90;2.00;;;;;;;16.21;64.01;98985.59;4951628;28;41438;-77
2022/05/22 05:55:47;;;;;;;2.63;2.00;;;;;;;16.36;63.48;98994.16;4951515;28;43651;-76
2022/05/22 05:58:33;;;;;;;2.43;1.70;;;;;;;16.52;63.52;98986.56;4952275;28;41199;-77
2022/05/22 06:01:24;;;;;;;2.07;1.87;;;;;;;16.72;63.09;98983.06;4951085;28;39916;-77
2022/05/22 06:03:52;;;;;;;2.43;2.20;;;;;;;16.94;62.66;98973.19;4936052;28;40740;-77
2022/05/22 06:06:21;;;;;;;3.23;2.00;;;;;;;17.11;62.71;98983.25;4951494;28;42852;-77
2022/05/22 06:08:50;;;;;;;2.63;2.27;;;;;;;17.21;61.94;98979.66;4965877;28;44108;-77
2022/05/22 06:11:36;;;;;;;2.50;2.30;;;;;;;17.32;61.91;98970.66;4971236;28;40131;-77
2022/05/22 06:14:13;;;;;;;1.97;1.77;;;;;;;17.48;62.05;98980.88;4954302;28;40547;-77
2022/05/22 06:16:41;;;;;;;1.93;1.70;;;;;;;17.62;61.38;98967.09;4954760;28;41728;-77
2022/05/22 06:19:12;;;;;;;3.13;1.80;;;;;;;17.71;61.22;98949.38;4955566;28;41198;-77
2022/05/22 06:21:44;;;;;;;2.37;1.93;;;;;;;18.03;60.73;98966.06;4954456;28;38777;-77
2022/05/22 06:24:13;;;;;;;2.33;2.03;;;;;;;18.20;59.56;98978.75;4954793;28;40446;-77
2022/05/22 06:27:05;;;;;;;3.57;1.77;;;;;;;18.33;59.49;98966.91;4952082;28;41693;-77
2022/05/22 06:29:46;;;;;;;2.43;2.03;;;;;;;18.39;59.46;98963.66;4967897;28;42399;-77
2022/05/22 06:32:33;;;;;;;3.10;1.87;;;;;;;18.62;58.67;98978.50;4971007;28;39176;-77
2022/05/22 06:35:21;;;;;;;2.80;1.73;;;;;;;18.72;58.77;98973.94;4971483;28;41683;-77
2022/05/22 06:41:33;;;;;;;3.10;2.00;;;;;;;19.08;57.19;98974.13;4971766;28;42583;-77
2022/05/22 06:44:30;;;;;;;2.50;1.87;;;;;;;19.34;57.28;98977.84;4936526;28;39934;-77
2022/05/22 06:47:25;;;;;;;2.17;1.70;;;;;;;19.69;56.77;98977.97;4970708;28;40953;-77
2022/05/22 06:50:19;;;;;;;2.37;1.70;;;;;;;20.08;56.14;98985.78;4964767;28;43507;-77
2022/05/22 06:53:16;;;;;;;2.10;1.53;;;;;;;20.36;54.40;98995.50;4957978;28;42282;-78
2022/05/22 06:55:57;;;;;;;3.80;1.50;;;;;;;20.47;52.08;99001.66;4954901;28;39553;-77
2022/05/22 06:58:37;;;;;;;2.70;1.40;;;;;;;20.71;51.86;98999.16;4955168;28;41148;-77
2022/05/22 07:01:15;;;;;;;1.47;1.37;;;;;;;21.05;51.66;99002.75;4954441;28;43545;-77
2022/05/22 07:04:02;;;;;;;1.87;1.67;;;;;;;21.25;48.99;99014.22;4954873;28;41142;-77
2022/05/22 07:06:55;;;;;;;1.90;1.70;;;;;;;21.39;49.60;99018.13;4938508;28;40412;-77
2022/05/22 07:09:56;;;;;;;1.47;1.30;;;;;;;21.49;49.13;99016.19;4943513;28;41785;-79
2022/05/22 07:12:38;;;;;;;1.73;1.20;;;;;;;21.66;48.05;99023.31;4938478;28;41702;-77
2022/05/22 07:15:17;;;;;;;2.83;1.53;;;;;;;21.90;48.45;99019.03;4937800;28;41826;-77
2022/05/22 07:17:44;;;;;;;2.17;1.40;;;;;;;22.28;47.95;99013.06;4955676;28;40942;-78
2022/05/22 07:20:44;;;;;;;1.27;1.17;;;;;;;23.01;46.59;99018.50;4921888;28;42497;-77
2022/05/22 07:23:32;;;;;;;2.97;1.40;;;;;;;23.97;43.53;99034.66;4953628;28;41705;-77
2022/05/22 07:26:26;;;;;;;2.83;1.57;;;;;;;25.16;41.41;99031.47;4937835;28;41380;-77
2022/05/22 07:29:02;;;;;;;2.83;1.27;;;;;;;26.46;39.54;99044.28;4951499;28;39781;-77
2022/05/22 07:31:50;;;;;;;0.97;0.97;;;;;;;27.18;37.17;99053.19;4954036;28;40820;-77
2022/05/22 07:34:38;;;;;;;1.70;1.13;;;;;;;27.33;37.06;99050.31;4952608;28;42853;-77
2022/05/22 07:37:24;;;;;;;1.50;0.90;;;;;;;27.75;36.99;99048.53;4954303;28;41481;-77
2022/05/22 07:40:24;;;;;;;1.47;1.20;;;;;;;28.48;35.52;99045.09;4942728;28;38970;-75
2022/05/22 07:43:10;;;;;;;2.73;1.23;;;;;;;29.53;32.97;99068.91;4950414;28;41806;-77
2022/05/22 07:45:50;;;;;;;1.60;1.33;;;;;;;30.11;33.17;99058.06;4937367;28;43181;-78
2022/05/22 07:48:33;;;;;;;2.67;1.30;;;;;;;30.16;31.13;99074.66;4953834;28;43153;-77
2022/05/22 07:51:19;;;;;;;1.20;1.10;;;;;;;30.21;32.69;99058.44;4954434;28;40992;-76
2022/05/22 07:54:00;;;;;;;2.50;1.20;;;;;;;30.23;31.95;99059.06;4948815;28;41728;-76
2022/05/22 07:56:54;;;;;;;1.30;1.20;;;;;;;30.04;32.06;99040.03;4971087;28;41602;-79
2022/05/22 07:59:34;;;;;;;1.93;0.90;;;;;;;30.74;31.25;99041.75;4955359;28;42257;-77
2022/05/22 08:02:20;;;;;;;2.00;1.23;;;;;;;31.54;30.61;99050.16;4957264;28;38593;-76
2022/05/22 08:04:52;;;;;;;1.43;1.10;;;;;;;32.29;28.72;99065.34;4956752;28;41711;-77
2022/05/22 08:07:42;;;;;;;1.50;1.30;;;;;;;32.45;27.26;99061.97;4957044;28;41690;-79
2022/05/22 08:10:45;;;;;;;1.57;0.97;;;;;;;31.68;28.64;99054.47;4972456;28;42427;-76
2022/05/22 08:13:19;;;;;;;2.00;1.30;;;;;;;31.16;28.72;99045.66;4956901;28;40252;-76
2022/05/22 08:15:47;;;;;;;3.17;0.90;;;;;;;31.55;28.75;99040.88;4972480;28;41780;-76
2022/05/22 08:18:38;;;;;;;1.80;1.10;;;;;;;32.96;27.47;99040.59;4956818;28;41649;-77
2022/05/22 08:21:07;;;;;;;1.20;1.10;;;;;;;33.58;25.63;99028.09;4956359;28;41191;-76
2022/05/22 08:23:40;;;;;;;1.20;1.10;;;;;;;34.30;25.41;99052.50;4969841;28;39713;-78
2022/05/22 08:26:22;;;;;;;1.70;1.13;;;;;;;34.68;25.05;99051.84;4956300;28;41311;-77
2022/05/22 08:28:51;;;;;;;2.50;1.17;;;;;;;34.51;24.86;99044.41;4956543;28;43216;-78
2022/05/22 08:31:19;;;;;;;2.93;1.03;;;;;;;34.39;25.09;99013.34;4955911;28;41550;-77
2022/05/22 08:33:53;;;;;;;1.13;1.00;;;;;;;34.71;25.89;99032.13;4957099;28;39776;-77
2022/05/22 08:36:20;;;;;;;1.93;1.10;;;;;;;35.22;23.75;99053.97;4956939;28;41768;-77
2022/05/22 08:38:48;;;;;;;1.53;0.90;;;;;;;36.25;22.73;99048.84;4956197;28;42239;-78
2022/05/22 08:41:21;;;;;;;3.50;1.67;;;;;;;37.55;22.06;99052.34;4955195;28;41110;-77
2022/05/22 08:43:56;;;;;;;0.95;0.93;;;;;;;38.48;19.92;99067.22;4969773;28;41599;-77
2022/05/22 08:46:32;;;;;;;2.05;0.90;;;;;;;38.38;20.55;99050.59;4972704;28;41748;-77
2022/05/22 08:49:07;;;;;;;2.53;1.20;;;;;;;37.33;22.04;99031.22;4956424;28;41988;-78
2022/05/22 08:51:42;;;;;;;1.50;0.93;;;;;;;36.55;21.97;99035.41;4971959;28;41457;-77
2022/05/22 08:54:14;;;;;;;1.30;1.20;;;;;;;35.72;22.79;99021.94;4956428;28;38980;-78
2022/05/22 08:59:32;;;;;;;0.80;0.80;;;;;;;35.29;22.85;99010.56;4948639;28;42271;-78
2022/05/22 09:02:10;;;;;;;2.23;1.10;;;;;;;34.70;23.39;98997.41;4947452;28;41437;-78
2022/05/22 09:04:43;;;;;;;1.27;1.10;;;;;;;34.07;24.81;98992.91;4960873;28;39904;-77
2022/05/22 09:07:19;;;;;;;1.53;1.10;;;;;;;33.68;25.18;98992.63;4952709;28;40602;-78
2022/05/22 09:09:52;;;;;;;0.87;0.80;;;;;;;33.47;24.75;98994.09;4949915;28;43637;-78
2022/05/22 09:12:37;;;;;;;2.70;1.30;;;;;;;33.26;26.62;98991.13;4951036;28;43212;-77
2022/05/22 09:15:12;;;;;;;1.33;1.10;;;;;;;32.99;25.35;98991.56;4951232;28;39732;-77
2022/05/22 09:17:46;;;;;;;2.43;1.20;;;;;;;32.91;24.87;98989.16;4948886;28;42784;-77
2022/05/22 09:20:20;;;;;;;1.50;1.10;;;;;;;32.88;25.18;98986.06;4936608;28;43211;-77
2022/05/22 09:23:03;;;;;;;2.23;1.00;;;;;;;32.59;26.46;98968.56;4952927;28;42002;-77
2022/05/22 09:25:43;;;;;;;1.37;1.00;;;;;;;32.43;25.74;98965.41;4952001;28;40128;-78
2022/05/22 09:28:20;;;;;;;1.27;1.17;;;;;;;32.75;26.21;98962.41;4936833;28;41674;-78
2022/05/22 09:30:57;;;;;;;1.50;1.00;;;;;;;33.57;23.96;98987.97;4950788;28;43492;-78
2022/05/22 09:33:35;;;;;;;1.37;1.00;;;;;;;34.10;23.80;98981.44;4952140;28;42170;-78
2022/05/22 09:36:14;;;;;;;1.30;1.10;;;;;;;34.52;23.50;98979.22;4943413;28;39490;-78
2022/05/22 09:38:54;;;;;;;1.60;1.03;;;;;;;34.32;23.48;98974.19;4949216;28;40581;-78
2022/05/22 09:41:32;;;;;;;1.60;1.20;;;;;;;34.35;23.11;98972.88;4966989;28;42916;-78
2022/05/22 09:44:39;;;;;;;1.70;1.37;;;;;;;34.72;24.45;98962.25;4967200;28;41210;-78
2022/05/22 09:47:54;;;;;;;2.13;1.00;;;;;;;34.49;24.69;98955.81;4965347;28;40790;-78
2022/05/22 09:50:29;;;;;;;2.20;1.20;;;;;;;34.38;24.53;98956.69;4913358;29;40723;-78
2022/05/22 09:53:04;;;;;;;1.77;1.03;;;;;;;35.21;24.40;98952.31;4959178;28;43770;-78
2022/05/22 09:55:42;;;;;;;1.43;1.00;;;;;;;35.74;22.29;98970.13;4969040;28;41429;-77
2022/05/22 09:58:36;;;;;;;0.87;0.70;;;;;;;35.58;23.18;98952.59;4952908;28;39372;-78
2022/05/22 10:01:11;;;;;;;1.67;1.47;;;;;;;35.08;22.12;98961.75;4949464;28;41278;-77
2022/05/22 10:03:51;;;;;;;1.37;1.00;;;;;;;34.87;22.89;98954.25;4963262;28;42960;-78
2022/05/22 10:06:28;;;;;;;3.20;1.07;;;;;;;35.12;23.98;98940.88;4965743;28;42140;-78
2022/05/22 10:09:07;;;;;;;1.67;1.10;;;;;;;35.88;23.32;98933.69;4935745;28;39164;-78
2022/05/22 10:11:41;;;;;;;2.90;1.10;;;;;;;36.77;22.52;98937.94;4952506;28;41793;-78
2022/05/22 10:14:25;;;;;;;1.33;0.90;;;;;;;38.06;21.04;98953.91;4949191;28;43357;-81
2022/05/22 10:17:05;;;;;;;1.58;1.00;;;;;;;39.31;20.20;98947.97;4945694;28;42312;-78
2022/05/22 10:19:40;;;;;;;1.38;1.02;;;;;;;39.89;18.09;98954.72;4968147;28;40360;-79
2022/05/22 10:22:22;;;;;;;1.10;0.82;;;;;;;40.61;18.17;98966.25;4959335;28;40564;-79
2022/05/22 10:25:09;;;;;;;1.65;1.10;;;;;;;40.79;18.15;98960.88;4975286;28;41925;-79
2022/05/22 10:27:51;;;;;;;2.08;1.20;;;;;;;40.64;18.53;98949.84;4951664;28;42600;-79
2022/05/22 10:30:22;;;;;;;1.17;1.08;;;;;;;40.06;17.92;98957.94;4954079;28;40103;-78
2022/05/22 10:32:58;;;;;;;1.15;1.05;;;;;;;39.49;18.18;98956.50;4938773;28;41794;-78
2022/05/22 10:35:30;;;;;;;1.92;1.20;;;;;;;39.97;18.34;98951.34;4965996;28;42893;-79
2022/05/22 10:38:05;;;;;;;2.25;1.00;;;;;;;40.06;18.35;98944.09;4965807;28;41437;-78
2022/05/22 10:43:15;;;;;;;1.38;1.05;;;;;;;39.30;19.45;98940.75;4952718;28;41697;-78
2022/05/22 10:45:43;;;;;;;1.10;0.95;;;;;;;38.56;19.55;98947.72;4967897;28;42085;-78
2022/05/22 10:48:13;;;;;;;1.13;1.05;;;;;;;38.29;20.45;98927.72;4970299;28;41292;-78
2022/05/22 10:50:53;;;;;;;1.33;1.00;;;;;;;37.87;21.44;98920.38;4953811;28;40408;-78
2022/05/22 10:53:31;;;;;;;1.13;1.03;;;;;;;36.80;21.68;98918.09;4970010;28;40539;-78
2022/05/22 10:56:04;;;;;;;1.27;1.10;;;;;;;35.56;21.90;98910.69;4969771;28;41746;-78
2022/05/22 10:58:35;;;;;;;1.67;1.10;;;;;;;34.61;22.20;98921.91;4949460;28;41260;-78
2022/05/22 11:01:06;;;;;;;1.20;1.10;;;;;;;33.82;24.29;98911.63;4961191;28;40037;-77
2022/05/22 11:03:35;;;;;;;1.43;1.00;;;;;;;33.27;24.39;98899.44;4957091;28;41536;-77
2022/05/22 11:06:18;;;;;;;1.17;0.90;;;;;;;33.49;24.85;98892.25;4963540;28;43009;-77
2022/05/22 11:08:52;;;;;;;0.97;0.83;;;;;;;34.04;26.89;98855.97;4957709;28;42265;-78
2022/05/22 11:11:26;;;;;;;1.83;1.23;;;;;;;34.34;25.21;98873.03;4959479;28;40111;-77
2022/05/22 11:14:05;;;;;;;1.60;1.00;;;;;;;34.54;24.24;98873.38;4942690;28;40843;-78
2022/05/22 11:16:33;;;;;;;2.57;1.00;;;;;;;34.73;24.75;98870.38;4945763;28;41727;-77
2022/05/22 11:19:07;;;;;;;1.20;0.80;;;;;;;34.77;23.90;98860.53;4962991;28;43619;-78
2022/05/22 11:21:41;;;;;;;1.83;1.00;;;;;;;35.04;24.25;98879.91;4959116;28;40823;-77
2022/05/22 11:24:26;;;;;;;1.17;1.07;;;;;;;35.23;25.66;98865.63;4957862;28;41918;-77
2022/05/22 11:27:06;;;;;;;1.20;1.10;;;;;;;35.52;23.11;98890.22;4959586;28;42986;-78
2022/05/22 11:29:49;;;;;;;1.37;1.10;;;;;;;35.37;23.95;98877.09;4948446;28;42463;-78
2022/05/22 11:32:29;;;;;;;1.10;0.90;;;;;;;35.68;25.29;98858.19;4966128;28;39851;-78
2022/05/22 11:35:15;;;;;;;1.13;1.03;;;;;;;35.53;23.65;98867.09;4956576;28;40837;-78
2022/05/22 11:37:57;;;;;;;1.20;1.10;;;;;;;34.90;24.92;98865.69;4970771;28;41627;-77
2022/05/22 11:40:34;;;;;;;1.17;1.07;;;;;;;34.13;23.84;98865.47;4968702;28;43102;-77
2022/05/22 11:43:19;;;;;;;1.33;1.03;;;;;;;33.54;24.16;98871.19;4971665;28;41308;-77
2022/05/22 11:45:56;;;;;;;1.03;0.93;;;;;;;33.09;24.03;98871.03;4971556;28;41693;-77
2022/05/22 11:48:41;;;;;;;1.73;1.00;;;;;;;32.70;24.62;98856.13;4970306;28;43055;-78
2022/05/22 11:51:33;;;;;;;2.73;1.00;;;;;;;32.25;26.39;98835.81;4973297;28;41262;-77
2022/05/22 11:54:24;;;;;;;1.20;0.90;;;;;;;31.70;27.21;98823.13;4971271;28;40288;-78
2022/05/22 11:57:06;;;;;;;1.50;0.80;;;;;;;31.33;27.77;98810.56;4964824;28;40676;-78
2022/05/22 12:00:04;;;;;;;0.70;0.70;;;;;;;31.76;27.41;98811.25;4951713;28;43783;-78
2022/05/22 12:03:15;;;;;;;0.80;0.80;;;;;;;33.21;27.55;98807.88;4953728;28;41492;-78
2022/05/22 12:05:54;;;;;;;1.13;1.00;;;;;;;35.66;24.77;98795.06;4893518;28;40344;-78
2022/05/22 12:08:49;;;;;;;1.03;1.03;;;;;;;37.16;21.31;98845.47;4937754;28;40840;-76
2022/05/22 12:11:28;;;;;;;1.23;1.03;;;;;;;37.93;21.30;98833.59;4919878;28;41721;-76
2022/05/22 12:14:05;;;;;;;1.07;0.97;;;;;;;39.06;18.08;98847.16;4936072;28;41409;-78
2022/05/22 12:16:42;;;;;;;0.90;0.90;;;;;;;40.32;17.64;98849.59;4952965;28;39824;-77
2022/05/22 12:19:24;;;;;;;2.17;1.07;;;;;;;41.17;17.01;98858.28;4939417;28;41663;-76
2022/05/22 12:22:05;;;;;;;0.80;0.80;;;;;;;42.25;16.49;98862.94;4943829;28;42743;-76
2022/05/22 12:24:43;;;;;;;1.55;0.90;;;;;;;43.40;15.73;98854.75;4959773;28;41502;-76
2022/05/22 12:27:20;;;;;;;1.20;1.10;;;;;;;44.36;15.69;98849.84;4944028;28;39352;-76
2022/05/22 12:29:57;;;;;;;1.35;1.20;;;;;;;45.02;14.58;98844.47;4957141;28;42222;-78